sensor_id;sensor_type;location;lat;lon;timestamp;P1;durP1;ratioP1;P2;durP2;ratioP2
4500;SDS011;2263;54.654;9.410;2022-08-25T00:01:58;2.90;;;2.30;;
4500;SDS011;2263;54.654;9.410;2022-08-25T00:04:30;3.63;;;2.90;;
4500;SDS011;2263;54.654;9.410;2022-08-25T00:07:01;2.70;;;2.50;;
4500;SDS011;2263;54.654;9.410;2022-08-25T00:09:29;2.83;;;2.40;;
4500;SDS011;2263;54.654;9.410;2022-08-25T00:11:58;2.80;;;2.60;;
4500;SDS011;2263;54.654;9.410;2022-08-25T00:14:28;4.70;;;2.30;;
4500;SDS011;2263;54.654;9.410;2022-08-25T00:16:59;2.87;;;2.60;;
4500;SDS011;2263;54.654;9.410;2022-08-25T00:19:28;4.57;;;2.47;;
4500;SDS011;2263;54.654;9.410;2022-08-25T00:21:58;4.17;;;3.87;;
4500;SDS011;2263;54.654;9.410;2022-08-25T00:24:27;3.10;;;2.80;;
4500;SDS011;2263;54.654;9.410;2022-08-25T00:26:55;2.60;;;2.40;;
4500;SDS011;2263;54.654;9.410;2022-08-25T00:29:24;10.23;;;2.27;;
4500;SDS011;2263;54.654;9.410;2022-08-25T00:31:52;4.90;;;2.50;;
4500;SDS011;2263;54.654;9.410;2022-08-25T00:34:22;4.20;;;2.30;;
4500;SDS011;2263;54.654;9.410;2022-08-25T00:36:55;2.50;;;2.17;;
4500;SDS011;2263;54.654;9.410;2022-08-25T00:39:23;2.20;;;2.00;;
4500;SDS011;2263;54.654;9.410;2022-08-25T00:41:53;9.30;;;2.60;;
4500;SDS011;2263;54.654;9.410;2022-08-25T00:44:26;2.57;;;2.37;;
4500;SDS011;2263;54.654;9.410;2022-08-25T00:46:55;16.23;;;3.37;;
4500;SDS011;2263;54.654;9.410;2022-08-25T00:49:27;12.23;;;3.00;;
4500;SDS011;2263;54.654;9.410;2022-08-25T00:55:00;2.43;;;2.23;;
4500;SDS011;2263;54.654;9.410;2022-08-25T00:57:37;3.30;;;2.47;;
4500;SDS011;2263;54.654;9.410;2022-08-25T01:00:11;2.40;;;2.20;;
4500;SDS011;2263;54.654;9.410;2022-08-25T01:02:52;4.20;;;3.30;;
4500;SDS011;2263;54.654;9.410;2022-08-25T01:05:22;2.30;;;2.20;;
4500;SDS011;2263;54.654;9.410;2022-08-25T01:07:52;5.70;;;2.80;;
4500;SDS011;2263;54.654;9.410;2022-08-25T01:10:24;2.63;;;2.43;;
4500;SDS011;2263;54.654;9.410;2022-08-25T01:12:53;2.37;;;2.17;;
4500;SDS011;2263;54.654;9.410;2022-08-25T01:15:28;5.90;;;2.93;;
4500;SDS011;2263;54.654;9.410;2022-08-25T01:17:56;2.80;;;2.23;;
4500;SDS011;2263;54.654;9.410;2022-08-25T01:20:26;3.70;;;3.17;;
4500;SDS011;2263;54.654;9.410;2022-08-25T01:22:56;2.90;;;2.43;;
4500;SDS011;2263;54.654;9.410;2022-08-25T01:25:37;2.57;;;2.37;;
4500;SDS011;2263;54.654;9.410;2022-08-25T01:28:17;3.10;;;2.80;;
4500;SDS011;2263;54.654;9.410;2022-08-25T01:30:45;3.03;;;2.77;;
4500;SDS011;2263;54.654;9.410;2022-08-25T01:33:13;3.60;;;3.30;;
4500;SDS011;2263;54.654;9.410;2022-08-25T01:35:42;2.67;;;2.47;;
4500;SDS011;2263;54.654;9.410;2022-08-25T01:38:10;7.23;;;2.83;;
4500;SDS011;2263;54.654;9.410;2022-08-25T01:40:38;2.47;;;2.37;;
4500;SDS011;2263;54.654;9.410;2022-08-25T01:45:44;4.43;;;3.00;;
4500;SDS011;2263;54.654;9.410;2022-08-25T01:48:13;2.63;;;2.40;;
4500;SDS011;2263;54.654;9.410;2022-08-25T01:50:41;2.93;;;2.33;;
4500;SDS011;2263;54.654;9.410;2022-08-25T01:55:52;2.40;;;2.30;;
4500;SDS011;2263;54.654;9.410;2022-08-25T01:58:30;3.20;;;2.90;;
4500;SDS011;2263;54.654;9.410;2022-08-25T02:01:01;4.03;;;3.20;;
4500;SDS011;2263;54.654;9.410;2022-08-25T02:03:32;2.60;;;2.40;;
4500;SDS011;2263;54.654;9.410;2022-08-25T02:06:07;2.73;;;2.53;;
4500;SDS011;2263;54.654;9.410;2022-08-25T02:08:36;3.83;;;2.20;;
4500;SDS011;2263;54.654;9.410;2022-08-25T02:11:04;3.07;;;2.27;;
4500;SDS011;2263;54.654;9.410;2022-08-25T02:13:31;2.70;;;2.50;;
4500;SDS011;2263;54.654;9.410;2022-08-25T02:15:58;2.97;;;2.67;;
4500;SDS011;2263;54.654;9.410;2022-08-25T02:18:27;4.30;;;2.80;;
4500;SDS011;2263;54.654;9.410;2022-08-25T02:20:55;4.23;;;2.73;;
4500;SDS011;2263;54.654;9.410;2022-08-25T02:23:22;2.57;;;2.37;;
4500;SDS011;2263;54.654;9.410;2022-08-25T02:25:49;4.73;;;2.60;;
4500;SDS011;2263;54.654;9.410;2022-08-25T02:28:17;5.13;;;3.07;;
4500;SDS011;2263;54.654;9.410;2022-08-25T02:30:44;2.87;;;2.30;;
4500;SDS011;2263;54.654;9.410;2022-08-25T02:33:11;2.37;;;2.17;;
4500;SDS011;2263;54.654;9.410;2022-08-25T02:35:38;5.90;;;2.93;;
4500;SDS011;2263;54.654;9.410;2022-08-25T02:38:06;6.30;;;3.00;;
4500;SDS011;2263;54.654;9.410;2022-08-25T02:40:33;3.67;;;2.43;;
4500;SDS011;2263;54.654;9.410;2022-08-25T02:43:01;2.77;;;2.57;;
4500;SDS011;2263;54.654;9.410;2022-08-25T02:45:28;2.40;;;2.20;;
4500;SDS011;2263;54.654;9.410;2022-08-25T02:47:55;3.80;;;3.10;;
4500;SDS011;2263;54.654;9.410;2022-08-25T02:50:23;3.07;;;2.77;;
4500;SDS011;2263;54.654;9.410;2022-08-25T02:52:51;2.80;;;2.60;;
4500;SDS011;2263;54.654;9.410;2022-08-25T02:55:19;5.10;;;2.83;;
4500;SDS011;2263;54.654;9.410;2022-08-25T02:57:46;2.90;;;2.33;;
4500;SDS011;2263;54.654;9.410;2022-08-25T03:00:14;2.93;;;2.73;;
4500;SDS011;2263;54.654;9.410;2022-08-25T03:02:42;3.37;;;2.53;;
4500;SDS011;2263;54.654;9.410;2022-08-25T03:05:10;2.83;;;2.60;;
4500;SDS011;2263;54.654;9.410;2022-08-25T03:07:39;2.70;;;2.50;;
4500;SDS011;2263;54.654;9.410;2022-08-25T03:10:08;2.67;;;2.30;;
4500;SDS011;2263;54.654;9.410;2022-08-25T03:12:38;3.10;;;2.37;;
4500;SDS011;2263;54.654;9.410;2022-08-25T03:15:07;2.93;;;2.73;;
4500;SDS011;2263;54.654;9.410;2022-08-25T03:17:38;5.03;;;2.17;;
4500;SDS011;2263;54.654;9.410;2022-08-25T03:20:11;2.77;;;2.57;;
4500;SDS011;2263;54.654;9.410;2022-08-25T03:22:39;3.77;;;3.40;;
4500;SDS011;2263;54.654;9.410;2022-08-25T03:25:06;3.70;;;2.83;;
4500;SDS011;2263;54.654;9.410;2022-08-25T03:27:52;2.43;;;2.33;;
4500;SDS011;2263;54.654;9.410;2022-08-25T03:30:19;6.87;;;3.13;;
4500;SDS011;2263;54.654;9.410;2022-08-25T03:32:49;3.03;;;2.60;;
4500;SDS011;2263;54.654;9.410;2022-08-25T03:35:17;3.53;;;3.20;;
4500;SDS011;2263;54.654;9.410;2022-08-25T03:37:44;6.77;;;3.33;;
4500;SDS011;2263;54.654;9.410;2022-08-25T03:40:12;3.03;;;2.73;;
4500;SDS011;2263;54.654;9.410;2022-08-25T03:42:44;3.53;;;3.23;;
4500;SDS011;2263;54.654;9.410;2022-08-25T03:45:13;2.93;;;2.73;;
4500;SDS011;2263;54.654;9.410;2022-08-25T03:47:46;3.20;;;3.00;;
4500;SDS011;2263;54.654;9.410;2022-08-25T03:50:15;3.00;;;2.63;;
4500;SDS011;2263;54.654;9.410;2022-08-25T03:52:43;3.60;;;3.30;;
4500;SDS011;2263;54.654;9.410;2022-08-25T03:55:15;4.90;;;4.40;;
4500;SDS011;2263;54.654;9.410;2022-08-25T03:57:43;4.00;;;3.70;;
4500;SDS011;2263;54.654;9.410;2022-08-25T04:00:10;2.53;;;2.33;;
4500;SDS011;2263;54.654;9.410;2022-08-25T04:02:38;3.20;;;2.93;;
4500;SDS011;2263;54.654;9.410;2022-08-25T04:05:07;3.53;;;3.33;;
4500;SDS011;2263;54.654;9.410;2022-08-25T04:07:35;3.23;;;2.97;;
4500;SDS011;2263;54.654;9.410;2022-08-25T04:10:03;3.57;;;3.37;;
4500;SDS011;2263;54.654;9.410;2022-08-25T04:12:32;4.10;;;3.80;;
4500;SDS011;2263;54.654;9.410;2022-08-25T04:15:00;5.97;;;3.23;;
4500;SDS011;2263;54.654;9.410;2022-08-25T04:17:27;3.30;;;3.00;;
4500;SDS011;2263;54.654;9.410;2022-08-25T04:19:55;4.17;;;3.87;;
4500;SDS011;2263;54.654;9.410;2022-08-25T04:22:22;4.33;;;3.30;;
4500;SDS011;2263;54.654;9.410;2022-08-25T04:24:52;3.43;;;3.13;;
4500;SDS011;2263;54.654;9.410;2022-08-25T04:27:20;5.13;;;3.13;;
4500;SDS011;2263;54.654;9.410;2022-08-25T04:29:47;4.17;;;3.87;;
4500;SDS011;2263;54.654;9.410;2022-08-25T04:32:14;4.80;;;4.00;;
4500;SDS011;2263;54.654;9.410;2022-08-25T04:34:41;5.13;;;3.03;;
4500;SDS011;2263;54.654;9.410;2022-08-25T04:37:08;3.70;;;3.27;;
4500;SDS011;2263;54.654;9.410;2022-08-25T04:39:36;3.60;;;3.30;;
4500;SDS011;2263;54.654;9.410;2022-08-25T04:42:03;3.90;;;3.20;;
4500;SDS011;2263;54.654;9.410;2022-08-25T04:44:30;4.57;;;4.20;;
4500;SDS011;2263;54.654;9.410;2022-08-25T04:46:58;4.50;;;4.20;;
4500;SDS011;2263;54.654;9.410;2022-08-25T04:49:26;5.33;;;3.50;;
4500;SDS011;2263;54.654;9.410;2022-08-25T04:51:54;6.63;;;4.07;;
4500;SDS011;2263;54.654;9.410;2022-08-25T04:54:23;4.20;;;3.77;;
4500;SDS011;2263;54.654;9.410;2022-08-25T04:56:50;4.20;;;3.90;;
4500;SDS011;2263;54.654;9.410;2022-08-25T04:59:23;10.87;;;4.40;;
4500;SDS011;2263;54.654;9.410;2022-08-25T05:01:56;4.77;;;4.37;;
4500;SDS011;2263;54.654;9.410;2022-08-25T05:04:24;6.70;;;4.60;;
4500;SDS011;2263;54.654;9.410;2022-08-25T05:06:54;7.83;;;5.00;;
4500;SDS011;2263;54.654;9.410;2022-08-25T05:09:23;5.23;;;4.80;;
4500;SDS011;2263;54.654;9.410;2022-08-25T05:11:50;7.33;;;4.70;;
4500;SDS011;2263;54.654;9.410;2022-08-25T05:14:19;5.73;;;5.07;;
4500;SDS011;2263;54.654;9.410;2022-08-25T05:16:52;5.77;;;4.07;;
4500;SDS011;2263;54.654;9.410;2022-08-25T05:19:20;6.73;;;4.90;;
4500;SDS011;2263;54.654;9.410;2022-08-25T05:21:49;5.23;;;4.10;;
4500;SDS011;2263;54.654;9.410;2022-08-25T05:24:17;5.13;;;4.40;;
4500;SDS011;2263;54.654;9.410;2022-08-25T05:26:44;12.30;;;4.73;;
4500;SDS011;2263;54.654;9.410;2022-08-25T05:29:12;5.43;;;4.93;;
4500;SDS011;2263;54.654;9.410;2022-08-25T05:31:39;5.63;;;5.20;;
4500;SDS011;2263;54.654;9.410;2022-08-25T05:34:15;5.67;;;4.87;;
4500;SDS011;2263;54.654;9.410;2022-08-25T05:36:44;7.67;;;4.70;;
4500;SDS011;2263;54.654;9.410;2022-08-25T05:39:13;5.83;;;5.30;;
4500;SDS011;2263;54.654;9.410;2022-08-25T05:41:40;6.03;;;4.90;;
4500;SDS011;2263;54.654;9.410;2022-08-25T05:44:08;4.73;;;4.37;;
4500;SDS011;2263;54.654;9.410;2022-08-25T05:46:35;5.67;;;5.00;;
4500;SDS011;2263;54.654;9.410;2022-08-25T05:49:02;4.73;;;4.30;;
4500;SDS011;2263;54.654;9.410;2022-08-25T05:51:29;5.17;;;4.40;;
4500;SDS011;2263;54.654;9.410;2022-08-25T05:53:58;5.67;;;5.23;;
4500;SDS011;2263;54.654;9.410;2022-08-25T05:56:25;5.93;;;5.20;;
4500;SDS011;2263;54.654;9.410;2022-08-25T05:58:52;6.60;;;5.17;;
4500;SDS011;2263;54.654;9.410;2022-08-25T06:01:21;10.47;;;6.43;;
4500;SDS011;2263;54.654;9.410;2022-08-25T06:04:12;5.20;;;4.70;;
4500;SDS011;2263;54.654;9.410;2022-08-25T06:06:41;10.57;;;5.00;;
4500;SDS011;2263;54.654;9.410;2022-08-25T06:09:08;5.73;;;5.23;;
4500;SDS011;2263;54.654;9.410;2022-08-25T06:11:36;6.73;;;4.40;;
4500;SDS011;2263;54.654;9.410;2022-08-25T06:14:06;5.43;;;4.93;;
4500;SDS011;2263;54.654;9.410;2022-08-25T06:16:34;5.10;;;4.60;;
4500;SDS011;2263;54.654;9.410;2022-08-25T06:19:02;5.87;;;5.27;;
4500;SDS011;2263;54.654;9.410;2022-08-25T06:21:29;8.93;;;5.20;;
4500;SDS011;2263;54.654;9.410;2022-08-25T06:23:56;5.17;;;4.67;;
4500;SDS011;2263;54.654;9.410;2022-08-25T06:26:24;6.00;;;5.57;;
4500;SDS011;2263;54.654;9.410;2022-08-25T06:28:51;5.37;;;4.97;;
4500;SDS011;2263;54.654;9.410;2022-08-25T06:31:19;8.00;;;6.00;;
4500;SDS011;2263;54.654;9.410;2022-08-25T06:33:49;4.67;;;4.40;;
4500;SDS011;2263;54.654;9.410;2022-08-25T06:36:18;6.80;;;5.17;;
4500;SDS011;2263;54.654;9.410;2022-08-25T06:38:46;9.90;;;4.70;;
4500;SDS011;2263;54.654;9.410;2022-08-25T06:41:14;7.03;;;5.33;;
4500;SDS011;2263;54.654;9.410;2022-08-25T06:43:42;5.73;;;5.10;;
4500;SDS011;2263;54.654;9.410;2022-08-25T06:46:25;6.67;;;5.63;;
4500;SDS011;2263;54.654;9.410;2022-08-25T06:49:03;4.97;;;4.47;;
4500;SDS011;2263;54.654;9.410;2022-08-25T06:51:31;7.80;;;4.80;;
4500;SDS011;2263;54.654;9.410;2022-08-25T06:54:01;4.97;;;4.57;;
4500;SDS011;2263;54.654;9.410;2022-08-25T06:56:28;6.27;;;5.70;;
4500;SDS011;2263;54.654;9.410;2022-08-25T06:58:56;6.83;;;6.10;;
4500;SDS011;2263;54.654;9.410;2022-08-25T07:01:24;5.47;;;5.13;;
4500;SDS011;2263;54.654;9.410;2022-08-25T07:03:53;5.73;;;4.97;;
4500;SDS011;2263;54.654;9.410;2022-08-25T07:06:25;5.87;;;5.30;;
4500;SDS011;2263;54.654;9.410;2022-08-25T07:08:54;5.30;;;4.83;;
4500;SDS011;2263;54.654;9.410;2022-08-25T07:11:21;7.60;;;5.20;;
4500;SDS011;2263;54.654;9.410;2022-08-25T07:13:49;6.20;;;5.70;;
4500;SDS011;2263;54.654;9.410;2022-08-25T07:16:16;6.03;;;4.97;;
4500;SDS011;2263;54.654;9.410;2022-08-25T07:18:49;10.90;;;5.90;;
4500;SDS011;2263;54.654;9.410;2022-08-25T07:21:20;12.50;;;5.13;;
4500;SDS011;2263;54.654;9.410;2022-08-25T07:23:54;9.40;;;5.60;;
4500;SDS011;2263;54.654;9.410;2022-08-25T07:26:24;10.40;;;4.93;;
4500;SDS011;2263;54.654;9.410;2022-08-25T07:29:06;6.27;;;4.73;;
4500;SDS011;2263;54.654;9.410;2022-08-25T07:31:45;7.50;;;5.00;;
4500;SDS011;2263;54.654;9.410;2022-08-25T07:34:15;9.40;;;5.57;;
4500;SDS011;2263;54.654;9.410;2022-08-25T07:37:04;6.00;;;5.40;;
4500;SDS011;2263;54.654;9.410;2022-08-25T07:39:31;6.07;;;5.20;;
4500;SDS011;2263;54.654;9.410;2022-08-25T07:42:00;7.10;;;4.90;;
4500;SDS011;2263;54.654;9.410;2022-08-25T07:44:27;5.87;;;5.30;;
4500;SDS011;2263;54.654;9.410;2022-08-25T07:46:54;4.50;;;4.10;;
4500;SDS011;2263;54.654;9.410;2022-08-25T07:49:23;8.03;;;6.20;;
4500;SDS011;2263;54.654;9.410;2022-08-25T07:51:52;6.60;;;5.70;;
4500;SDS011;2263;54.654;9.410;2022-08-25T07:54:32;8.27;;;5.23;;
4500;SDS011;2263;54.654;9.410;2022-08-25T07:57:03;4.83;;;4.43;;
4500;SDS011;2263;54.654;9.410;2022-08-25T07:59:38;5.90;;;5.40;;
4500;SDS011;2263;54.654;9.410;2022-08-25T08:02:07;7.43;;;4.93;;
4500;SDS011;2263;54.654;9.410;2022-08-25T08:04:48;5.30;;;4.90;;
4500;SDS011;2263;54.654;9.410;2022-08-25T08:07:17;8.50;;;5.07;;
4500;SDS011;2263;54.654;9.410;2022-08-25T08:09:48;5.23;;;4.80;;
4500;SDS011;2263;54.654;9.410;2022-08-25T08:12:37;7.30;;;4.43;;
4500;SDS011;2263;54.654;9.410;2022-08-25T08:15:05;6.77;;;5.07;;
4500;SDS011;2263;54.654;9.410;2022-08-25T08:17:36;5.67;;;5.10;;
4500;SDS011;2263;54.654;9.410;2022-08-25T08:20:05;11.23;;;5.00;;
4500;SDS011;2263;54.654;9.410;2022-08-25T08:22:35;7.20;;;5.40;;
4500;SDS011;2263;54.654;9.410;2022-08-25T08:25:04;5.97;;;5.50;;
4500;SDS011;2263;54.654;9.410;2022-08-25T08:27:36;7.97;;;5.50;;
4500;SDS011;2263;54.654;9.410;2022-08-25T08:30:04;6.47;;;5.87;;
4500;SDS011;2263;54.654;9.410;2022-08-25T08:32:32;6.57;;;5.20;;
4500;SDS011;2263;54.654;9.410;2022-08-25T08:35:19;6.73;;;5.90;;
4500;SDS011;2263;54.654;9.410;2022-08-25T08:37:47;4.50;;;4.10;;
4500;SDS011;2263;54.654;9.410;2022-08-25T08:40:19;4.67;;;4.37;;
4500;SDS011;2263;54.654;9.410;2022-08-25T08:43:02;6.73;;;4.73;;
4500;SDS011;2263;54.654;9.410;2022-08-25T08:45:51;4.57;;;4.17;;
4500;SDS011;2263;54.654;9.410;2022-08-25T08:48:30;8.43;;;3.90;;
4500;SDS011;2263;54.654;9.410;2022-08-25T08:51:22;8.60;;;4.50;;
4500;SDS011;2263;54.654;9.410;2022-08-25T08:54:00;6.30;;;5.33;;
4500;SDS011;2263;54.654;9.410;2022-08-25T08:56:41;5.20;;;4.80;;
4500;SDS011;2263;54.654;9.410;2022-08-25T08:59:18;6.23;;;4.13;;
4500;SDS011;2263;54.654;9.410;2022-08-25T09:01:56;4.93;;;4.60;;
4500;SDS011;2263;54.654;9.410;2022-08-25T09:07:21;8.27;;;5.27;;
4500;SDS011;2263;54.654;9.410;2022-08-25T09:09:57;5.20;;;4.60;;
4500;SDS011;2263;54.654;9.410;2022-08-25T09:15:22;5.47;;;4.80;;
4500;SDS011;2263;54.654;9.410;2022-08-25T09:30:15;5.23;;;4.83;;
4500;SDS011;2263;54.654;9.410;2022-08-25T09:32:49;4.47;;;4.13;;
4500;SDS011;2263;54.654;9.410;2022-08-25T09:35:28;4.03;;;3.47;;
4500;SDS011;2263;54.654;9.410;2022-08-25T09:38:07;4.57;;;4.27;;
4500;SDS011;2263;54.654;9.410;2022-08-25T09:40:37;4.70;;;4.40;;
4500;SDS011;2263;54.654;9.410;2022-08-25T09:43:28;4.30;;;3.90;;
4500;SDS011;2263;54.654;9.410;2022-08-25T09:46:00;5.00;;;4.60;;
4500;SDS011;2263;54.654;9.410;2022-08-25T09:51:16;10.47;;;4.10;;
4500;SDS011;2263;54.654;9.410;2022-08-25T09:53:50;5.33;;;4.13;;
4500;SDS011;2263;54.654;9.410;2022-08-25T09:56:19;4.33;;;4.03;;
4500;SDS011;2263;54.654;9.410;2022-08-25T09:58:51;6.20;;;3.93;;
4500;SDS011;2263;54.654;9.410;2022-08-25T10:01:22;4.73;;;4.33;;
4500;SDS011;2263;54.654;9.410;2022-08-25T10:04:00;4.10;;;3.80;;
4500;SDS011;2263;54.654;9.410;2022-08-25T10:06:41;5.03;;;4.53;;
4500;SDS011;2263;54.654;9.410;2022-08-25T10:09:13;5.17;;;4.23;;
4500;SDS011;2263;54.654;9.410;2022-08-25T10:11:57;7.00;;;4.07;;
4500;SDS011;2263;54.654;9.410;2022-08-25T10:22:36;5.03;;;4.60;;
4500;SDS011;2263;54.654;9.410;2022-08-25T10:25:05;5.27;;;4.77;;
4500;SDS011;2263;54.654;9.410;2022-08-25T10:28:25;4.30;;;3.93;;
4500;SDS011;2263;54.654;9.410;2022-08-25T10:42:32;4.90;;;4.20;;
4500;SDS011;2263;54.654;9.410;2022-08-25T10:45:14;5.17;;;3.37;;
4500;SDS011;2263;54.654;9.410;2022-08-25T10:48:15;4.73;;;3.30;;
4500;SDS011;2263;54.654;9.410;2022-08-25T10:59:11;4.97;;;3.67;;
4500;SDS011;2263;54.654;9.410;2022-08-25T11:04:39;5.60;;;4.70;;
4500;SDS011;2263;54.654;9.410;2022-08-25T11:09:46;5.57;;;4.73;;
4500;SDS011;2263;54.654;9.410;2022-08-25T11:12:28;13.40;;;3.70;;
4500;SDS011;2263;54.654;9.410;2022-08-25T11:15:46;3.87;;;3.57;;
4500;SDS011;2263;54.654;9.410;2022-08-25T11:20:27;5.07;;;4.57;;
4500;SDS011;2263;54.654;9.410;2022-08-25T11:23:24;3.83;;;3.50;;
4500;SDS011;2263;54.654;9.410;2022-08-25T11:26:10;4.27;;;3.60;;
4500;SDS011;2263;54.654;9.410;2022-08-25T11:28:53;5.93;;;4.13;;
4500;SDS011;2263;54.654;9.410;2022-08-25T11:31:24;4.47;;;4.17;;
4500;SDS011;2263;54.654;9.410;2022-08-25T11:33:53;4.80;;;3.03;;
4500;SDS011;2263;54.654;9.410;2022-08-25T11:36:32;3.30;;;3.10;;
4500;SDS011;2263;54.654;9.410;2022-08-25T12:09:33;4.00;;;3.70;;
4500;SDS011;2263;54.654;9.410;2022-08-25T12:12:27;5.00;;;3.70;;
4500;SDS011;2263;54.654;9.410;2022-08-25T12:26:19;6.93;;;3.63;;
4500;SDS011;2263;54.654;9.410;2022-08-25T12:29:06;3.90;;;3.60;;
4500;SDS011;2263;54.654;9.410;2022-08-25T12:37:10;8.40;;;3.70;;
4500;SDS011;2263;54.654;9.410;2022-08-25T12:39:58;4.37;;;3.00;;
4500;SDS011;2263;54.654;9.410;2022-08-25T12:42:32;8.50;;;4.00;;
4500;SDS011;2263;54.654;9.410;2022-08-25T12:45:10;3.33;;;3.03;;
4500;SDS011;2263;54.654;9.410;2022-08-25T12:47:41;7.20;;;4.17;;
4500;SDS011;2263;54.654;9.410;2022-08-25T12:50:29;11.27;;;3.53;;
4500;SDS011;2263;54.654;9.410;2022-08-25T12:53:06;4.30;;;3.40;;
4500;SDS011;2263;54.654;9.410;2022-08-25T12:55:55;5.30;;;4.20;;
4500;SDS011;2263;54.654;9.410;2022-08-25T12:58:31;4.00;;;3.70;;
4500;SDS011;2263;54.654;9.410;2022-08-25T13:15:26;3.90;;;3.43;;
4500;SDS011;2263;54.654;9.410;2022-08-25T13:23:29;3.43;;;3.20;;
4500;SDS011;2263;54.654;9.410;2022-08-25T13:25:59;4.40;;;3.23;;
4500;SDS011;2263;54.654;9.410;2022-08-25T13:28:31;7.50;;;3.40;;
4500;SDS011;2263;54.654;9.410;2022-08-25T13:31:07;6.90;;;3.63;;
4500;SDS011;2263;54.654;9.410;2022-08-25T13:33:55;3.87;;;3.30;;
4500;SDS011;2263;54.654;9.410;2022-08-25T13:36:25;7.73;;;3.73;;
4500;SDS011;2263;54.654;9.410;2022-08-25T13:39:23;3.40;;;3.20;;
4500;SDS011;2263;54.654;9.410;2022-08-25T13:42:15;4.10;;;3.90;;
4500;SDS011;2263;54.654;9.410;2022-08-25T13:44:43;3.70;;;3.50;;
4500;SDS011;2263;54.654;9.410;2022-08-25T13:47:30;5.00;;;4.40;;
4500;SDS011;2263;54.654;9.410;2022-08-25T13:55:35;6.00;;;3.83;;
4500;SDS011;2263;54.654;9.410;2022-08-25T13:58:20;3.73;;;3.37;;
4500;SDS011;2263;54.654;9.410;2022-08-25T14:04:19;4.10;;;3.80;;
4500;SDS011;2263;54.654;9.410;2022-08-25T14:12:26;4.73;;;3.70;;
4500;SDS011;2263;54.654;9.410;2022-08-25T14:17:40;3.47;;;3.17;;
4500;SDS011;2263;54.654;9.410;2022-08-25T14:20:16;7.70;;;7.10;;
4500;SDS011;2263;54.654;9.410;2022-08-25T14:22:56;11.53;;;8.77;;
4500;SDS011;2263;54.654;9.410;2022-08-25T14:25:27;7.37;;;6.00;;
4500;SDS011;2263;54.654;9.410;2022-08-25T14:28:00;6.57;;;4.67;;
4500;SDS011;2263;54.654;9.410;2022-08-25T14:30:34;6.07;;;5.57;;
4500;SDS011;2263;54.654;9.410;2022-08-25T14:33:07;4.77;;;4.23;;
4500;SDS011;2263;54.654;9.410;2022-08-25T14:35:35;11.57;;;4.10;;
4500;SDS011;2263;54.654;9.410;2022-08-25T14:38:07;12.30;;;4.10;;
4500;SDS011;2263;54.654;9.410;2022-08-25T14:40:36;7.20;;;4.27;;
4500;SDS011;2263;54.654;9.410;2022-08-25T14:43:08;6.70;;;4.47;;
4500;SDS011;2263;54.654;9.410;2022-08-25T14:45:36;4.63;;;3.67;;
4500;SDS011;2263;54.654;9.410;2022-08-25T14:48:06;6.80;;;3.20;;
4500;SDS011;2263;54.654;9.410;2022-08-25T14:50:38;4.50;;;3.80;;
4500;SDS011;2263;54.654;9.410;2022-08-25T14:53:08;7.80;;;4.43;;
4500;SDS011;2263;54.654;9.410;2022-08-25T14:55:37;7.53;;;4.27;;
4500;SDS011;2263;54.654;9.410;2022-08-25T14:58:05;4.33;;;3.50;;
4500;SDS011;2263;54.654;9.410;2022-08-25T15:00:39;4.83;;;3.90;;
4500;SDS011;2263;54.654;9.410;2022-08-25T15:03:14;4.97;;;4.07;;
4500;SDS011;2263;54.654;9.410;2022-08-25T15:05:46;5.90;;;3.80;;
4500;SDS011;2263;54.654;9.410;2022-08-25T15:08:15;3.80;;;3.20;;
4500;SDS011;2263;54.654;9.410;2022-08-25T15:11:00;6.10;;;3.60;;
4500;SDS011;2263;54.654;9.410;2022-08-25T15:13:34;8.43;;;3.60;;
4500;SDS011;2263;54.654;9.410;2022-08-25T15:16:02;4.70;;;3.80;;
4500;SDS011;2263;54.654;9.410;2022-08-25T15:18:29;4.67;;;3.50;;
4500;SDS011;2263;54.654;9.410;2022-08-25T15:20:58;4.03;;;3.73;;
4500;SDS011;2263;54.654;9.410;2022-08-25T15:23:27;8.63;;;4.40;;
4500;SDS011;2263;54.654;9.410;2022-08-25T15:25:55;5.30;;;4.60;;
4500;SDS011;2263;54.654;9.410;2022-08-25T15:28:23;4.00;;;3.60;;
4500;SDS011;2263;54.654;9.410;2022-08-25T15:30:51;9.30;;;4.87;;
4500;SDS011;2263;54.654;9.410;2022-08-25T15:33:19;6.27;;;4.07;;
4500;SDS011;2263;54.654;9.410;2022-08-25T15:35:48;3.70;;;3.10;;
4500;SDS011;2263;54.654;9.410;2022-08-25T15:38:16;4.63;;;3.70;;
4500;SDS011;2263;54.654;9.410;2022-08-25T15:40:44;4.63;;;4.13;;
4500;SDS011;2263;54.654;9.410;2022-08-25T15:43:11;3.70;;;3.43;;
4500;SDS011;2263;54.654;9.410;2022-08-25T15:45:39;6.07;;;3.63;;
4500;SDS011;2263;54.654;9.410;2022-08-25T15:48:06;3.50;;;3.20;;
4500;SDS011;2263;54.654;9.410;2022-08-25T15:50:35;7.20;;;3.83;;
4500;SDS011;2263;54.654;9.410;2022-08-25T15:53:04;4.47;;;3.83;;
4500;SDS011;2263;54.654;9.410;2022-08-25T15:55:39;6.63;;;3.83;;
4500;SDS011;2263;54.654;9.410;2022-08-25T15:58:06;6.13;;;3.60;;
4500;SDS011;2263;54.654;9.410;2022-08-25T16:00:34;4.77;;;2.87;;
4500;SDS011;2263;54.654;9.410;2022-08-25T16:03:03;4.87;;;3.97;;
4500;SDS011;2263;54.654;9.410;2022-08-25T16:05:36;3.63;;;3.33;;
4500;SDS011;2263;54.654;9.410;2022-08-25T16:08:13;19.03;;;16.23;;
4500;SDS011;2263;54.654;9.410;2022-08-25T16:10:45;11.70;;;10.50;;
4500;SDS011;2263;54.654;9.410;2022-08-25T16:13:12;18.67;;;11.90;;
4500;SDS011;2263;54.654;9.410;2022-08-25T16:15:44;13.97;;;12.50;;
4500;SDS011;2263;54.654;9.410;2022-08-25T16:18:18;13.20;;;11.80;;
4500;SDS011;2263;54.654;9.410;2022-08-25T16:20:46;11.73;;;10.70;;
4500;SDS011;2263;54.654;9.410;2022-08-25T16:23:15;9.10;;;8.50;;
4500;SDS011;2263;54.654;9.410;2022-08-25T16:25:44;9.23;;;8.33;;
4500;SDS011;2263;54.654;9.410;2022-08-25T16:28:12;9.27;;;7.20;;
4500;SDS011;2263;54.654;9.410;2022-08-25T16:30:47;7.97;;;7.27;;
4500;SDS011;2263;54.654;9.410;2022-08-25T16:33:18;12.03;;;8.97;;
4500;SDS011;2263;54.654;9.410;2022-08-25T16:35:46;6.70;;;6.10;;
4500;SDS011;2263;54.654;9.410;2022-08-25T16:38:14;7.67;;;6.17;;
4500;SDS011;2263;54.654;9.410;2022-08-25T16:40:42;7.07;;;6.43;;
4500;SDS011;2263;54.654;9.410;2022-08-25T16:43:11;5.37;;;5.00;;
4500;SDS011;2263;54.654;9.410;2022-08-25T16:45:41;6.13;;;5.30;;
4500;SDS011;2263;54.654;9.410;2022-08-25T16:48:08;8.10;;;5.83;;
4500;SDS011;2263;54.654;9.410;2022-08-25T16:50:37;9.93;;;4.50;;
4500;SDS011;2263;54.654;9.410;2022-08-25T16:53:04;4.40;;;4.00;;
4500;SDS011;2263;54.654;9.410;2022-08-25T16:55:58;5.90;;;5.07;;
4500;SDS011;2263;54.654;9.410;2022-08-25T16:58:27;6.53;;;5.90;;
4500;SDS011;2263;54.654;9.410;2022-08-25T17:01:02;9.23;;;5.17;;
4500;SDS011;2263;54.654;9.410;2022-08-25T17:03:41;5.07;;;4.50;;
4500;SDS011;2263;54.654;9.410;2022-08-25T17:06:09;4.83;;;4.37;;
4500;SDS011;2263;54.654;9.410;2022-08-25T17:08:39;5.60;;;4.63;;
4500;SDS011;2263;54.654;9.410;2022-08-25T17:11:08;6.60;;;4.37;;
4500;SDS011;2263;54.654;9.410;2022-08-25T17:13:41;4.40;;;4.00;;
4500;SDS011;2263;54.654;9.410;2022-08-25T17:16:11;14.10;;;3.80;;
4500;SDS011;2263;54.654;9.410;2022-08-25T17:18:40;14.50;;;3.63;;
4500;SDS011;2263;54.654;9.410;2022-08-25T17:21:13;7.13;;;3.87;;
4500;SDS011;2263;54.654;9.410;2022-08-25T17:23:50;10.73;;;5.63;;
4500;SDS011;2263;54.654;9.410;2022-08-25T17:26:18;7.43;;;4.40;;
4500;SDS011;2263;54.654;9.410;2022-08-25T17:28:54;6.70;;;4.20;;
4500;SDS011;2263;54.654;9.410;2022-08-25T17:31:26;10.77;;;4.60;;
4500;SDS011;2263;54.654;9.410;2022-08-25T17:33:56;11.43;;;4.30;;
4500;SDS011;2263;54.654;9.410;2022-08-25T17:36:23;6.67;;;4.20;;
4500;SDS011;2263;54.654;9.410;2022-08-25T17:38:53;15.37;;;4.47;;
4500;SDS011;2263;54.654;9.410;2022-08-25T17:41:23;9.10;;;4.60;;
4500;SDS011;2263;54.654;9.410;2022-08-25T17:43:51;6.30;;;3.30;;
4500;SDS011;2263;54.654;9.410;2022-08-25T17:46:19;6.27;;;3.50;;
4500;SDS011;2263;54.654;9.410;2022-08-25T17:48:46;3.53;;;3.23;;
4500;SDS011;2263;54.654;9.410;2022-08-25T17:51:13;7.50;;;4.17;;
4500;SDS011;2263;54.654;9.410;2022-08-25T17:53:41;9.07;;;3.80;;
4500;SDS011;2263;54.654;9.410;2022-08-25T17:56:10;4.10;;;3.63;;
4500;SDS011;2263;54.654;9.410;2022-08-25T17:58:39;9.63;;;4.73;;
4500;SDS011;2263;54.654;9.410;2022-08-25T18:01:13;6.63;;;4.20;;
4500;SDS011;2263;54.654;9.410;2022-08-25T18:03:48;10.63;;;3.50;;
4500;SDS011;2263;54.654;9.410;2022-08-25T18:06:18;7.83;;;3.70;;
4500;SDS011;2263;54.654;9.410;2022-08-25T18:08:47;5.53;;;3.47;;
4500;SDS011;2263;54.654;9.410;2022-08-25T18:11:18;8.13;;;3.17;;
4500;SDS011;2263;54.654;9.410;2022-08-25T18:13:46;7.60;;;3.13;;